sensor_id;sensor_type;location;lat;lon;timestamp;temperature;humidity
61591;DHT22;57639;52.410;-1.966;2022-09-21T00:00:52;19.30;62.00
61591;DHT22;57639;52.410;-1.966;2022-09-21T00:03:59;19.30;62.00
61591;DHT22;57639;52.410;-1.966;2022-09-21T00:07:07;19.30;61.90
61591;DHT22;57639;52.410;-1.966;2022-09-21T00:10:14;19.30;62.00
61591;DHT22;57639;52.410;-1.966;2022-09-21T00:13:22;19.30;62.10
61591;DHT22;57639;52.410;-1.966;2022-09-21T00:16:32;19.30;62.10
61591;DHT22;57639;52.410;-1.966;2022-09-21T00:19:40;19.30;62.00
61591;DHT22;57639;52.410;-1.966;2022-09-21T00:22:46;19.30;61.90
61591;DHT22;57639;52.410;-1.966;2022-09-21T00:26:04;19.30;62.00
61591;DHT22;57639;52.410;-1.966;2022-09-21T00:29:10;19.30;62.00
61591;DHT22;57639;52.410;-1.966;2022-09-21T00:32:20;19.30;61.90
61591;DHT22;57639;52.410;-1.966;2022-09-21T00:35:26;19.30;61.90
61591;DHT22;57639;52.410;-1.966;2022-09-21T00:38:35;19.20;61.80
61591;DHT22;57639;52.410;-1.966;2022-09-21T00:41:41;19.20;61.80
61591;DHT22;57639;52.410;-1.966;2022-09-21T00:44:49;19.30;61.70
61591;DHT22;57639;52.410;-1.966;2022-09-21T00:47:57;19.30;61.70
61591;DHT22;57639;52.410;-1.966;2022-09-21T00:51:05;19.30;61.70
61591;DHT22;57639;52.410;-1.966;2022-09-21T00:54:18;19.30;61.60
61591;DHT22;57639;52.410;-1.966;2022-09-21T00:57:28;19.30;61.60
61591;DHT22;57639;52.410;-1.966;2022-09-21T01:00:37;19.20;61.50
61591;DHT22;57639;52.410;-1.966;2022-09-21T01:03:48;19.20;61.60
61591;DHT22;57639;52.410;-1.966;2022-09-21T01:06:55;19.20;61.60
61591;DHT22;57639;52.410;-1.966;2022-09-21T01:10:07;19.20;61.70
61591;DHT22;57639;52.410;-1.966;2022-09-21T01:13:23;19.20;61.70
61591;DHT22;57639;52.410;-1.966;2022-09-21T01:16:36;19.10;61.70
61591;DHT22;57639;52.410;-1.966;2022-09-21T01:23:49;19.10;61.80
61591;DHT22;57639;52.410;-1.966;2022-09-21T01:27:22;19.10;61.90
61591;DHT22;57639;52.410;-1.966;2022-09-21T01:30:41;19.10;61.90
61591;DHT22;57639;52.410;-1.966;2022-09-21T01:33:53;19.10;62.00
61591;DHT22;57639;52.410;-1.966;2022-09-21T01:37:05;19.10;62.00
61591;DHT22;57639;52.410;-1.966;2022-09-21T01:40:16;19.10;62.00
61591;DHT22;57639;52.410;-1.966;2022-09-21T01:43:30;19.10;62.00
61591;DHT22;57639;52.410;-1.966;2022-09-21T01:46:45;19.10;62.00
61591;DHT22;57639;52.410;-1.966;2022-09-21T01:49:55;19.10;62.00
61591;DHT22;57639;52.410;-1.966;2022-09-21T01:53:05;19.10;62.00
61591;DHT22;57639;52.410;-1.966;2022-09-21T01:56:16;19.10;62.00
61591;DHT22;57639;52.410;-1.966;2022-09-21T01:59:29;19.10;62.00
61591;DHT22;57639;52.410;-1.966;2022-09-21T02:02:45;19.10;62.00
61591;DHT22;57639;52.410;-1.966;2022-09-21T02:05:53;19.10;62.00
61591;DHT22;57639;52.410;-1.966;2022-09-21T02:09:01;19.10;62.10
61591;DHT22;57639;52.410;-1.966;2022-09-21T02:12:07;19.10;62.00
61591;DHT22;57639;52.410;-1.966;2022-09-21T02:15:28;19.00;62.00
61591;DHT22;57639;52.410;-1.966;2022-09-21T02:18:47;19.00;62.10
61591;DHT22;57639;52.410;-1.966;2022-09-21T02:22:03;19.00;62.00
61591;DHT22;57639;52.410;-1.966;2022-09-21T02:25:12;19.00;62.10
61591;DHT22;57639;52.410;-1.966;2022-09-21T02:28:28;19.00;62.10
61591;DHT22;57639;52.410;-1.966;2022-09-21T02:31:46;19.00;61.90
61591;DHT22;57639;52.410;-1.966;2022-09-21T02:35:03;19.00;61.90
61591;DHT22;57639;52.410;-1.966;2022-09-21T02:38:15;19.00;61.90
61591;DHT22;57639;52.410;-1.966;2022-09-21T02:41:29;19.00;61.90
61591;DHT22;57639;52.410;-1.966;2022-09-21T02:44:38;19.00;61.70
61591;DHT22;57639;52.410;-1.966;2022-09-21T02:47:50;19.00;61.80
61591;DHT22;57639;52.410;-1.966;2022-09-21T02:51:04;19.00;61.80
61591;DHT22;57639;52.410;-1.966;2022-09-21T02:54:16;19.00;61.70
61591;DHT22;57639;52.410;-1.966;2022-09-21T02:57:23;19.00;61.70
61591;DHT22;57639;52.410;-1.966;2022-09-21T03:00:33;19.00;61.80
61591;DHT22;57639;52.410;-1.966;2022-09-21T03:03:40;19.00;61.80
61591;DHT22;57639;52.410;-1.966;2022-09-21T03:06:51;19.00;61.80
61591;DHT22;57639;52.410;-1.966;2022-09-21T03:09:58;18.90;61.90
61591;DHT22;57639;52.410;-1.966;2022-09-21T03:13:06;19.00;61.90
61591;DHT22;57639;52.410;-1.966;2022-09-21T03:16:13;19.00;61.90
61591;DHT22;57639;52.410;-1.966;2022-09-21T03:19:21;19.00;61.80
61591;DHT22;57639;52.410;-1.966;2022-09-21T03:22:29;19.00;61.80
61591;DHT22;57639;52.410;-1.966;2022-09-21T03:25:37;18.90;61.90
61591;DHT22;57639;52.410;-1.966;2022-09-21T03:28:42;18.90;62.00
61591;DHT22;57639;52.410;-1.966;2022-09-21T03:31:50;18.90;61.80
61591;DHT22;57639;52.410;-1.966;2022-09-21T03:34:57;18.90;61.90
61591;DHT22;57639;52.410;-1.966;2022-09-21T03:38:07;18.90;61.90
61591;DHT22;57639;52.410;-1.966;2022-09-21T03:41:13;18.90;62.00
61591;DHT22;57639;52.410;-1.966;2022-09-21T03:44:22;18.90;61.90
61591;DHT22;57639;52.410;-1.966;2022-09-21T03:47:27;18.90;62.00
61591;DHT22;57639;52.410;-1.966;2022-09-21T03:50:35;18.90;62.00
61591;DHT22;57639;52.410;-1.966;2022-09-21T03:53:44;18.90;62.00
61591;DHT22;57639;52.410;-1.966;2022-09-21T03:56:51;18.90;62.00
61591;DHT22;57639;52.410;-1.966;2022-09-21T03:59:57;18.90;62.00
61591;DHT22;57639;52.410;-1.966;2022-09-21T04:03:06;18.80;62.10
61591;DHT22;57639;52.410;-1.966;2022-09-21T04:06:13;18.80;62.10
61591;DHT22;57639;52.410;-1.966;2022-09-21T04:09:24;18.80;62.20
61591;DHT22;57639;52.410;-1.966;2022-09-21T04:12:30;18.80;62.20
61591;DHT22;57639;52.410;-1.966;2022-09-21T04:15:37;18.80;62.10
61591;DHT22;57639;52.410;-1.966;2022-09-21T04:18:43;18.80;62.30
61591;DHT22;57639;52.410;-1.966;2022-09-21T04:21:53;18.80;62.10
61591;DHT22;57639;52.410;-1.966;2022-09-21T04:25:05;18.80;62.20
61591;DHT22;57639;52.410;-1.966;2022-09-21T04:28:13;18.80;62.10
61591;DHT22;57639;52.410;-1.966;2022-09-21T04:31:19;18.80;61.90
61591;DHT22;57639;52.410;-1.966;2022-09-21T04:34:27;18.80;61.90
61591;DHT22;57639;52.410;-1.966;2022-09-21T04:37:34;18.80;61.80
61591;DHT22;57639;52.410;-1.966;2022-09-21T04:40:53;18.80;61.70
61591;DHT22;57639;52.410;-1.966;2022-09-21T04:43:59;18.80;61.70
61591;DHT22;57639;52.410;-1.966;2022-09-21T04:47:07;18.80;61.60
61591;DHT22;57639;52.410;-1.966;2022-09-21T04:50:12;18.80;61.60
61591;DHT22;57639;52.410;-1.966;2022-09-21T04:53:20;18.80;61.70
61591;DHT22;57639;52.410;-1.966;2022-09-21T04:56:29;18.80;61.60
61591;DHT22;57639;52.410;-1.966;2022-09-21T04:59:36;18.80;61.60
61591;DHT22;57639;52.410;-1.966;2022-09-21T05:02:42;18.80;61.60
61591;DHT22;57639;52.410;-1.966;2022-09-21T05:05:59;18.80;61.80
61591;DHT22;57639;52.410;-1.966;2022-09-21T05:09:05;18.80;61.70
61591;DHT22;57639;52.410;-1.966;2022-09-21T05:12:48;18.80;61.60
61591;DHT22;57639;52.410;-1.966;2022-09-21T05:15:54;18.80;61.60
61591;DHT22;57639;52.410;-1.966;2022-09-21T05:19:02;18.80;61.70
61591;DHT22;57639;52.410;-1.966;2022-09-21T05:22:11;18.80;61.70
61591;DHT22;57639;52.410;-1.966;2022-09-21T05:25:19;18.80;61.80
61591;DHT22;57639;52.410;-1.966;2022-09-21T05:28:28;18.70;61.70
61591;DHT22;57639;52.410;-1.966;2022-09-21T05:31:46;18.80;61.90
61591;DHT22;57639;52.410;-1.966;2022-09-21T05:34:58;18.80;61.90
61591;DHT22;57639;52.410;-1.966;2022-09-21T05:38:16;18.70;61.90
61591;DHT22;57639;52.410;-1.966;2022-09-21T05:41:23;18.70;61.90
61591;DHT22;57639;52.410;-1.966;2022-09-21T05:44:35;18.70;61.80
61591;DHT22;57639;52.410;-1.966;2022-09-21T05:47:51;18.70;61.90
61591;DHT22;57639;52.410;-1.966;2022-09-21T05:51:03;18.70;62.00
61591;DHT22;57639;52.410;-1.966;2022-09-21T05:54:16;18.70;61.90
61591;DHT22;57639;52.410;-1.966;2022-09-21T05:57:34;18.70;61.70
61591;DHT22;57639;52.410;-1.966;2022-09-21T06:00:55;18.70;61.90
61591;DHT22;57639;52.410;-1.966;2022-09-21T06:04:08;18.70;61.80
61591;DHT22;57639;52.410;-1.966;2022-09-21T06:12:14;18.70;61.80
61591;DHT22;57639;52.410;-1.966;2022-09-21T06:15:25;18.70;61.90
61591;DHT22;57639;52.410;-1.966;2022-09-21T06:18:37;18.70;61.90
61591;DHT22;57639;52.410;-1.966;2022-09-21T06:21:47;18.70;61.80
61591;DHT22;57639;52.410;-1.966;2022-09-21T06:24:53;18.60;61.60
61591;DHT22;57639;52.410;-1.966;2022-09-21T06:28:02;18.70;61.60
61591;DHT22;57639;52.410;-1.966;2022-09-21T06:31:09;18.70;61.50
61591;DHT22;57639;52.410;-1.966;2022-09-21T06:34:28;18.70;61.40
61591;DHT22;57639;52.410;-1.966;2022-09-21T06:37:34;18.80;61.70
61591;DHT22;57639;52.410;-1.966;2022-09-21T06:40:43;18.80;61.70
61591;DHT22;57639;52.410;-1.966;2022-09-21T06:43:52;18.80;61.60
61591;DHT22;57639;52.410;-1.966;2022-09-21T06:47:01;18.90;61.80
61591;DHT22;57639;52.410;-1.966;2022-09-21T06:50:11;18.90;61.70
61591;DHT22;57639;52.410;-1.966;2022-09-21T06:53:18;18.90;61.70
61591;DHT22;57639;52.410;-1.966;2022-09-21T06:56:24;18.90;61.60
61591;DHT22;57639;52.410;-1.966;2022-09-21T06:59:31;19.00;61.80
61591;DHT22;57639;52.410;-1.966;2022-09-21T07:02:42;19.00;62.00
61591;DHT22;57639;52.410;-1.966;2022-09-21T07:05:53;19.00;62.20
61591;DHT22;57639;52.410;-1.966;2022-09-21T07:08:59;19.00;62.00
61591;DHT22;57639;52.410;-1.966;2022-09-21T07:12:27;19.00;61.80
61591;DHT22;57639;52.410;-1.966;2022-09-21T07:15:37;18.90;61.90
61591;DHT22;57639;52.410;-1.966;2022-09-21T07:18:44;19.00;62.00
61591;DHT22;57639;52.410;-1.966;2022-09-21T07:21:58;19.00;61.90
61591;DHT22;57639;52.410;-1.966;2022-09-21T07:25:10;19.00;61.80
61591;DHT22;57639;52.410;-1.966;2022-09-21T07:28:21;19.00;61.90
61591;DHT22;57639;52.410;-1.966;2022-09-21T07:31:29;18.90;61.80
61591;DHT22;57639;52.410;-1.966;2022-09-21T07:34:40;18.90;61.70
61591;DHT22;57639;52.410;-1.966;2022-09-21T07:37:48;18.90;61.90
61591;DHT22;57639;52.410;-1.966;2022-09-21T07:40:56;18.90;61.90
61591;DHT22;57639;52.410;-1.966;2022-09-21T07:44:02;19.00;61.60
61591;DHT22;57639;52.410;-1.966;2022-09-21T07:47:10;18.90;61.50
61591;DHT22;57639;52.410;-1.966;2022-09-21T07:50:23;18.90;61.50
61591;DHT22;57639;52.410;-1.966;2022-09-21T07:53:41;18.90;61.40
61591;DHT22;57639;52.410;-1.966;2022-09-21T07:56:53;18.80;61.50
61591;DHT22;57639;52.410;-1.966;2022-09-21T08:00:19;18.80;61.70
61591;DHT22;57639;52.410;-1.966;2022-09-21T08:03:27;18.80;61.60
61591;DHT22;57639;52.410;-1.966;2022-09-21T08:06:36;18.80;61.60
61591;DHT22;57639;52.410;-1.966;2022-09-21T08:09:50;18.80;61.90
61591;DHT22;57639;52.410;-1.966;2022-09-21T08:13:01;18.80;62.00
61591;DHT22;57639;52.410;-1.966;2022-09-21T08:16:09;18.90;61.90
61591;DHT22;57639;52.410;-1.966;2022-09-21T08:19:26;18.90;61.90
61591;DHT22;57639;52.410;-1.966;2022-09-21T08:22:39;18.80;61.80
61591;DHT22;57639;52.410;-1.966;2022-09-21T08:25:57;18.80;61.80
61591;DHT22;57639;52.410;-1.966;2022-09-21T08:29:02;18.90;61.70
61591;DHT22;57639;52.410;-1.966;2022-09-21T08:32:16;18.90;61.60
61591;DHT22;57639;52.410;-1.966;2022-09-21T08:35:42;18.90;61.60
61591;DHT22;57639;52.410;-1.966;2022-09-21T08:38:57;18.90;61.50
61591;DHT22;57639;52.410;-1.966;2022-09-21T08:42:31;18.90;61.50
61591;DHT22;57639;52.410;-1.966;2022-09-21T08:45:44;18.90;61.50
61591;DHT22;57639;52.410;-1.966;2022-09-21T08:48:58;18.90;61.50
61591;DHT22;57639;52.410;-1.966;2022-09-21T08:52:19;18.90;61.40
61591;DHT22;57639;52.410;-1.966;2022-09-21T08:55:26;18.80;61.40
61591;DHT22;57639;52.410;-1.966;2022-09-21T08:58:39;18.80;61.40
61591;DHT22;57639;52.410;-1.966;2022-09-21T09:01:54;18.90;61.40
61591;DHT22;57639;52.410;-1.966;2022-09-21T09:05:27;18.80;61.60
61591;DHT22;57639;52.410;-1.966;2022-09-21T09:12:30;18.80;61.60
61591;DHT22;57639;52.410;-1.966;2022-09-21T09:19:31;18.90;61.60
61591;DHT22;57639;52.410;-1.966;2022-09-21T09:22:44;18.90;61.60
61591;DHT22;57639;52.410;-1.966;2022-09-21T09:25:57;18.90;61.70
61591;DHT22;57639;52.410;-1.966;2022-09-21T09:29:13;18.90;61.70
61591;DHT22;57639;52.410;-1.966;2022-09-21T09:32:29;18.90;61.70
61591;DHT22;57639;52.410;-1.966;2022-09-21T09:35:39;18.90;61.60
61591;DHT22;57639;52.410;-1.966;2022-09-21T09:38:55;18.90;61.60
61591;DHT22;57639;52.410;-1.966;2022-09-21T09:42:23;18.90;61.60
61591;DHT22;57639;52.410;-1.966;2022-09-21T09:45:42;19.00;61.50
61591;DHT22;57639;52.410;-1.966;2022-09-21T09:49:13;19.00;61.50
61591;DHT22;57639;52.410;-1.966;2022-09-21T09:52:24;18.90;61.60
61591;DHT22;57639;52.410;-1.966;2022-09-21T09:55:36;19.00;61.60
61591;DHT22;57639;52.410;-1.966;2022-09-21T09:58:48;18.90;61.60
61591;DHT22;57639;52.410;-1.966;2022-09-21T10:02:04;19.00;61.40
61591;DHT22;57639;52.410;-1.966;2022-09-21T10:05:20;19.00;61.30
61591;DHT22;57639;52.410;-1.966;2022-09-21T10:08:38;19.00;61.10
61591;DHT22;57639;52.410;-1.966;2022-09-21T10:11:46;19.00;61.10
61591;DHT22;57639;52.410;-1.966;2022-09-21T10:14:55;19.00;61.20
61591;DHT22;57639;52.410;-1.966;2022-09-21T10:18:06;19.00;61.00
61591;DHT22;57639;52.410;-1.966;2022-09-21T10:21:21;19.10;60.90
61591;DHT22;57639;52.410;-1.966;2022-09-21T10:24:30;19.10;60.80
61591;DHT22;57639;52.410;-1.966;2022-09-21T10:27:42;19.10;60.90
61591;DHT22;57639;52.410;-1.966;2022-09-21T10:31:07;19.00;61.10
61591;DHT22;57639;52.410;-1.966;2022-09-21T10:34:14;19.10;61.30
61591;DHT22;57639;52.410;-1.966;2022-09-21T10:37:27;19.10;61.20
61591;DHT22;57639;52.410;-1.966;2022-09-21T10:40:36;19.10;61.20
61591;DHT22;57639;52.410;-1.966;2022-09-21T10:43:44;19.10;61.10
61591;DHT22;57639;52.410;-1.966;2022-09-21T10:46:51;19.10;61.00
61591;DHT22;57639;52.410;-1.966;2022-09-21T10:50:00;19.10;61.00
61591;DHT22;57639;52.410;-1.966;2022-09-21T10:53:21;19.10;61.00
61591;DHT22;57639;52.410;-1.966;2022-09-21T10:56:31;19.10;61.00
61591;DHT22;57639;52.410;-1.966;2022-09-21T10:59:37;19.10;60.80
61591;DHT22;57639;52.410;-1.966;2022-09-21T11:02:44;19.10;60.80
61591;DHT22;57639;52.410;-1.966;2022-09-21T11:05:52;19.10;60.90
61591;DHT22;57639;52.410;-1.966;2022-09-21T11:09:07;19.10;61.10
61591;DHT22;57639;52.410;-1.966;2022-09-21T11:12:42;19.10;61.10
61591;DHT22;57639;52.410;-1.966;2022-09-21T11:15:57;19.10;60.90
61591;DHT22;57639;52.410;-1.966;2022-09-21T11:19:21;19.10;61.00
61591;DHT22;57639;52.410;-1.966;2022-09-21T11:22:38;19.10;60.90
61591;DHT22;57639;52.410;-1.966;2022-09-21T11:25:54;19.10;60.80
61591;DHT22;57639;52.410;-1.966;2022-09-21T11:29:08;19.10;60.70
61591;DHT22;57639;52.410;-1.966;2022-09-21T11:32:36;19.10;60.80
61591;DHT22;57639;52.410;-1.966;2022-09-21T11:35:56;19.10;60.90
61591;DHT22;57639;52.410;-1.966;2022-09-21T11:39:21;19.10;61.00
61591;DHT22;57639;52.410;-1.966;2022-09-21T11:42:56;19.10;61.00
61591;DHT22;57639;52.410;-1.966;2022-09-21T11:46:20;19.10;61.00
61591;DHT22;57639;52.410;-1.966;2022-09-21T11:53:30;19.10;61.20
61591;DHT22;57639;52.410;-1.966;2022-09-21T11:56:46;19.10;61.30
61591;DHT22;57639;52.410;-1.966;2022-09-21T12:00:04;19.10;61.30
61591;DHT22;57639;52.410;-1.966;2022-09-21T12:07:21;19.20;61.00
61591;DHT22;57639;52.410;-1.966;2022-09-21T12:10:43;19.20;60.90
61591;DHT22;57639;52.410;-1.966;2022-09-21T12:14:00;19.20;60.80
61591;DHT22;57639;52.410;-1.966;2022-09-21T12:17:33;19.20;60.80
61591;DHT22;57639;52.410;-1.966;2022-09-21T12:20:57;19.30;60.90
61591;DHT22;57639;52.410;-1.966;2022-09-21T12:24:14;19.30;60.80
61591;DHT22;57639;52.410;-1.966;2022-09-21T12:27:27;19.30;60.90
61591;DHT22;57639;52.410;-1.966;2022-09-21T12:30:40;19.30;61.10
61591;DHT22;57639;52.410;-1.966;2022-09-21T12:34:10;19.30;61.20
61591;DHT22;57639;52.410;-1.966;2022-09-21T12:37:23;19.30;61.10
61591;DHT22;57639;52.410;-1.966;2022-09-21T12:40:37;19.30;61.20
61591;DHT22;57639;52.410;-1.966;2022-09-21T12:43:50;19.30;61.40
61591;DHT22;57639;52.410;-1.966;2022-09-21T12:47:01;19.30;61.30
61591;DHT22;57639;52.410;-1.966;2022-09-21T12:50:29;19.30;61.40
61591;DHT22;57639;52.410;-1.966;2022-09-21T12:53:45;19.40;61.30
61591;DHT22;57639;52.410;-1.966;2022-09-21T12:57:06;19.30;61.40
61591;DHT22;57639;52.410;-1.966;2022-09-21T13:00:55;19.30;61.40
61591;DHT22;57639;52.410;-1.966;2022-09-21T13:04:35;19.30;61.50
61591;DHT22;57639;52.410;-1.966;2022-09-21T13:08:07;19.30;61.50
61591;DHT22;57639;52.410;-1.966;2022-09-21T13:11:21;19.20;61.50
61591;DHT22;57639;52.410;-1.966;2022-09-21T13:14:33;19.20;61.50
61591;DHT22;57639;52.410;-1.966;2022-09-21T13:17:57;19.20;61.70
61591;DHT22;57639;52.410;-1.966;2022-09-21T13:21:19;19.20;61.80
61591;DHT22;57639;52.410;-1.966;2022-09-21T13:24:57;19.20;61.50
61591;DHT22;57639;52.410;-1.966;2022-09-21T13:28:21;19.30;61.50
61591;DHT22;57639;52.410;-1.966;2022-09-21T13:32:22;19.30;61.30
61591;DHT22;57639;52.410;-1.966;2022-09-21T13:35:59;19.30;61.40
61591;DHT22;57639;52.410;-1.966;2022-09-21T13:39:42;19.30;61.30
61591;DHT22;57639;52.410;-1.966;2022-09-21T13:43:14;19.30;61.10
61591;DHT22;57639;52.410;-1.966;2022-09-21T13:46:56;19.30;61.20
61591;DHT22;57639;52.410;-1.966;2022-09-21T13:50:30;19.40;61.30
61591;DHT22;57639;52.410;-1.966;2022-09-21T13:53:42;19.30;61.30
61591;DHT22;57639;52.410;-1.966;2022-09-21T14:00:41;19.30;61.30
61591;DHT22;57639;52.410;-1.966;2022-09-21T14:04:18;19.30;61.30
61591;DHT22;57639;52.410;-1.966;2022-09-21T14:07:45;19.30;61.30
61591;DHT22;57639;52.410;-1.966;2022-09-21T14:10:54;19.30;61.30
61591;DHT22;57639;52.410;-1.966;2022-09-21T14:14:16;19.30;61.20
61591;DHT22;57639;52.410;-1.966;2022-09-21T14:17:42;19.30;61.40
61591;DHT22;57639;52.410;-1.966;2022-09-21T14:21:14;19.30;61.40
61591;DHT22;57639;52.410;-1.966;2022-09-21T14:24:34;19.30;61.40
61591;DHT22;57639;52.410;-1.966;2022-09-21T14:27:46;19.30;61.40
61591;DHT22;57639;52.410;-1.966;2022-09-21T14:31:15;19.30;61.40
61591;DHT22;57639;52.410;-1.966;2022-09-21T14:34:46;19.40;61.30
61591;DHT22;57639;52.410;-1.966;2022-09-21T14:38:24;19.40;61.30
61591;DHT22;57639;52.410;-1.966;2022-09-21T14:41:38;19.30;61.30
61591;DHT22;57639;52.410;-1.966;2022-09-21T14:44:45;19.40;61.30
61591;DHT22;57639;52.410;-1.966;2022-09-21T14:48:05;19.40;61.30
61591;DHT22;57639;52.410;-1.966;2022-09-21T14:51:43;19.30;61.30
61591;DHT22;57639;52.410;-1.966;2022-09-21T14:55:21;19.40;61.30
61591;DHT22;57639;52.410;-1.966;2022-09-21T14:59:05;19.30;61.30
61591;DHT22;57639;52.410;-1.966;2022-09-21T15:02:25;19.30;61.30
61591;DHT22;57639;52.410;-1.966;2022-09-21T15:05:36;19.40;61.30
61591;DHT22;57639;52.410;-1.966;2022-09-21T15:09:29;19.30;61.30
61591;DHT22;57639;52.410;-1.966;2022-09-21T15:13:06;19.40;61.30
61591;DHT22;57639;52.410;-1.966;2022-09-21T15:16:39;19.30;61.40
61591;DHT22;57639;52.410;-1.966;2022-09-21T15:19:47;19.30;61.30
61591;DHT22;57639;52.410;-1.966;2022-09-21T15:22:55;19.40;61.30
61591;DHT22;57639;52.410;-1.966;2022-09-21T15:26:07;19.30;61.20
61591;DHT22;57639;52.410;-1.966;2022-09-21T15:29:25;19.30;61.30
61591;DHT22;57639;52.410;-1.966;2022-09-21T15:32:59;19.40;61.30
61591;DHT22;57639;52.410;-1.966;2022-09-21T15:36:07;19.40;61.40
61591;DHT22;57639;52.410;-1.966;2022-09-21T15:39:35;19.30;61.30
61591;DHT22;57639;52.410;-1.966;2022-09-21T15:43:16;19.30;61.40
61591;DHT22;57639;52.410;-1.966;2022-09-21T15:46:35;19.30;61.40
61591;DHT22;57639;52.410;-1.966;2022-09-21T15:49:44;19.30;61.40
61591;DHT22;57639;52.410;-1.966;2022-09-21T15:52:57;19.30;61.30
61591;DHT22;57639;52.410;-1.966;2022-09-21T15:56:19;19.30;61.30
61591;DHT22;57639;52.410;-1.966;2022-09-21T15:59:33;19.30;61.30
61591;DHT22;57639;52.410;-1.966;2022-09-21T16:02:50;19.40;61.40
61591;DHT22;57639;52.410;-1.966;2022-09-21T16:06:35;19.30;61.40
61591;DHT22;57639;52.410;-1.966;2022-09-21T16:09:56;19.40;61.30
61591;DHT22;57639;52.410;-1.966;2022-09-21T16:17:23;19.30;61.50
61591;DHT22;57639;52.410;-1.966;2022-09-21T16:20:59;19.30;61.40
61591;DHT22;57639;52.410;-1.966;2022-09-21T16:24:27;19.30;61.20
61591;DHT22;57639;52.410;-1.966;2022-09-21T16:27:48;19.30;61.40
61591;DHT22;57639;52.410;-1.966;2022-09-21T16:31:34;19.30;61.30
61591;DHT22;57639;52.410;-1.966;2022-09-21T16:39:02;19.30;61.90
61591;DHT22;57639;52.410;-1.966;2022-09-21T16:42:24;19.40;62.00
61591;DHT22;57639;52.410;-1.966;2022-09-21T16:45:34;19.40;62.00
61591;DHT22;57639;52.410;-1.966;2022-09-21T16:48:47;19.40;62.00
61591;DHT22;57639;52.410;-1.966;2022-09-21T16:52:19;19.50;62.00
61591;DHT22;57639;52.410;-1.966;2022-09-21T16:59:19;19.50;62.30
61591;DHT22;57639;52.410;-1.966;2022-09-21T17:02:45;19.40;62.40
61591;DHT22;57639;52.410;-1.966;2022-09-21T17:06:00;19.40;62.50
61591;DHT22;57639;52.410;-1.966;2022-09-21T17:09:22;19.40;62.50
61591;DHT22;57639;52.410;-1.966;2022-09-21T17:13:08;19.40;62.50
61591;DHT22;57639;52.410;-1.966;2022-09-21T17:16:29;19.40;62.60
61591;DHT22;57639;52.410;-1.966;2022-09-21T17:19:56;19.40;62.60
61591;DHT22;57639;52.410;-1.966;2022-09-21T17:23:14;19.40;62.60
61591;DHT22;57639;52.410;-1.966;2022-09-21T17:26:31;19.40;62.60
61591;DHT22;57639;52.410;-1.966;2022-09-21T17:29:57;19.40;62.50
61591;DHT22;57639;52.410;-1.966;2022-09-21T17:33:20;19.50;62.40
61591;DHT22;57639;52.410;-1.966;2022-09-21T17:36:32;19.50;62.20
61591;DHT22;57639;52.410;-1.966;2022-09-21T17:39:38;19.40;62.00
61591;DHT22;57639;52.410;-1.966;2022-09-21T17:42:49;19.50;61.80
61591;DHT22;57639;52.410;-1.966;2022-09-21T17:45:58;19.40;62.00
61591;DHT22;57639;52.410;-1.966;2022-09-21T17:49:11;19.50;61.70
61591;DHT22;57639;52.410;-1.966;2022-09-21T17:52:18;19.50;61.90
61591;DHT22;57639;52.410;-1.966;2022-09-21T17:55:47;19.40;61.80
61591;DHT22;57639;52.410;-1.966;2022-09-21T17:58:59;19.40;61.60
61591;DHT22;57639;52.410;-1.966;2022-09-21T18:02:18;19.30;61.60
61591;DHT22;57639;52.410;-1.966;2022-09-21T18:05:29;19.30;61.70
61591;DHT22;57639;52.410;-1.966;2022-09-21T18:08:38;19.30;61.60
61591;DHT22;57639;52.410;-1.966;2022-09-21T18:11:55;19.30;61.70
61591;DHT22;57639;52.410;-1.966;2022-09-21T18:15:11;19.30;61.60
61591;DHT22;57639;52.410;-1.966;2022-09-21T18:18:35;19.30;61.60
61591;DHT22;57639;52.410;-1.966;2022-09-21T18:21:54;19.30;61.50
61591;DHT22;57639;52.410;-1.966;2022-09-21T18:25:10;19.30;61.50
61591;DHT22;57639;52.410;-1.966;2022-09-21T18:28:23;19.20;62.10
61591;DHT22;57639;52.410;-1.966;2022-09-21T18:31:40;19.30;62.70
61591;DHT22;57639;52.410;-1.966;2022-09-21T18:35:03;19.30;62.90
61591;DHT22;57639;52.410;-1.966;2022-09-21T18:38:21;19.40;63.10
61591;DHT22;57639;52.410;-1.966;2022-09-21T18:41:38;19.50;63.30
61591;DHT22;57639;52.410;-1.966;2022-09-21T18:44:49;19.50;63.10
61591;DHT22;57639;52.410;-1.966;2022-09-21T18:48:17;19.60;63.40
61591;DHT22;57639;52.410;-1.966;2022-09-21T18:51:30;19.60;66.40
61591;DHT22;57639;52.410;-1.966;2022-09-21T18:54:45;19.70;66.80
61591;DHT22;57639;52.410;-1.966;2022-09-21T18:57:53;19.60;67.60
61591;DHT22;57639;52.410;-1.966;2022-09-21T19:01:01;19.70;68.00
61591;DHT22;57639;52.410;-1.966;2022-09-21T19:04:08;19.70;68.00
61591;DHT22;57639;52.410;-1.966;2022-09-21T19:07:23;19.70;67.80
61591;DHT22;57639;52.410;-1.966;2022-09-21T19:10:35;19.70;67.10
61591;DHT22;57639;52.410;-1.966;2022-09-21T19:13:51;19.70;66.70
61591;DHT22;57639;52.410;-1.966;2022-09-21T19:17:08;19.70;66.60
61591;DHT22;57639;52.410;-1.966;2022-09-21T19:20:41;19.70;66.70
61591;DHT22;57639;52.410;-1.966;2022-09-21T19:24:00;19.70;66.60
61591;DHT22;57639;52.410;-1.966;2022-09-21T19:27:25;19.70;66.30
61591;DHT22;57639;52.410;-1.966;2022-09-21T19:30:31;19.70;65.80
61591;DHT22;57639;52.410;-1.966;2022-09-21T19:33:39;19.70;65.50
61591;DHT22;57639;52.410;-1.966;2022-09-21T19:36:51;19.80;65.30
61591;DHT22;57639;52.410;-1.966;2022-09-21T19:40:00;19.80;65.40
61591;DHT22;57639;52.410;-1.966;2022-09-21T19:43:29;19.80;65.30
61591;DHT22;57639;52.410;-1.966;2022-09-21T19:46:45;19.80;65.30
61591;DHT22;57639;52.410;-1.966;2022-09-21T19:49:52;19.70;65.20
61591;DHT22;57639;52.410;-1.966;2022-09-21T19:53:01;19.70;65.10
61591;DHT22;57639;52.410;-1.966;2022-09-21T19:56:19;19.60;65.00
61591;DHT22;57639;52.410;-1.966;2022-09-21T19:59:45;19.70;65.10
61591;DHT22;57639;52.410;-1.966;2022-09-21T20:03:01;19.70;65.00
61591;DHT22;57639;52.410;-1.966;2022-09-21T20:06:13;19.70;64.80
61591;DHT22;57639;52.410;-1.966;2022-09-21T20:09:23;19.70;64.70
61591;DHT22;57639;52.410;-1.966;2022-09-21T20:12:39;19.60;64.70
61591;DHT22;57639;52.410;-1.966;2022-09-21T20:15:57;19.60;65.00
61591;DHT22;57639;52.410;-1.966;2022-09-21T20:19:16;19.60;64.80
61591;DHT22;57639;52.410;-1.966;2022-09-21T20:22:31;19.60;64.80
61591;DHT22;57639;52.410;-1.966;2022-09-21T20:25:48;19.60;64.70
61591;DHT22;57639;52.410;-1.966;2022-09-21T20:28:55;19.60;64.60
61591;DHT22;57639;52.410;-1.966;2022-09-21T20:32:07;19.60;64.90
61591;DHT22;57639;52.410;-1.966;2022-09-21T20:35:15;19.60;64.80
61591;DHT22;57639;52.410;-1.966;2022-09-21T20:38:25;19.60;64.50
61591;DHT22;57639;52.410;-1.966;2022-09-21T20:41:31;19.60;64.30
61591;DHT22;57639;52.410;-1.966;2022-09-21T20:44:39;19.60;64.30
61591;DHT22;57639;52.410;-1.966;2022-09-21T20:47:48;19.60;64.20
61591;DHT22;57639;52.410;-1.966;2022-09-21T20:50:56;19.60;64.00
61591;DHT22;57639;52.410;-1.966;2022-09-21T20:54:02;19.60;64.00